LESO

San Sebastian Airport

Hondarribia, Spain
TAF LESO 192300Z 2000/2024 VRB03KT 9999 BKN030 TX27/2015Z TN17/2006Z TEMPO 2011/2015 01010KT TEMPO 2014/2020 27010KT
Issued Valid From Valid To
Sep-19 @ 23:00 UTC
(2 hours ago)
Sep-20 @ 00:00 UTC
(41 minutes ago)
Sep-21 @ 00:00 UTC
(in 23 hours)
Sep-20 @ 00:00 to Sep-21 @ 00:00
TAF LESO 192300Z 2000/2024 VRB03KT 9999 BKN030 TX27/2015Z TN17/2006Z
Wind Visibility Clouds
Variable at 3 knots 10,000+ meters
  • Broken at 3,000' AGL
Temporary Sep-20 @ 11:00 to Sep-20 @ 15:00
TEMPO 2011/2015 01010KT
Wind
10° at 10 knots
Temporary Sep-20 @ 14:00 to Sep-20 @ 20:00
TEMPO 2014/2020 27010KT
Wind
270° at 10 knots
TAF LESO 192300Z 2000/2024 VRB03KT 9999 BKN030 TX27/2015Z TN17/2006Z TEMPO 2011/2015 01010KT TEMPO 2014/2020 27010KT
Issued Sep-19 @ 23:00 UTC
(2 hours ago)
Valid From Sep-20 @ 00:00 UTC
(41 minutes ago)
Valid To Sep-21 @ 00:00 UTC
(in 23 hours)
Sep-20 @ 00:00 - Sep-21 @ 00:00
Wind Visibility
Variable at 3 knots 10,000+ meters
Clouds
  • Broken at 3,000' AGL
Temporary Sep-20 @ 11:00 - Sep-20 @ 15:00
Wind
10° at 10 knots
Temporary Sep-20 @ 14:00 - Sep-20 @ 20:00
Wind
270° at 10 knots